createdAt,value
2019-05-25T00:04:11.615Z,101813.55
2019-05-25T00:09:13.354Z,101814.66
2019-05-25T00:14:15.437Z,101812.33
2019-05-25T00:19:19.566Z,101808.62
2019-05-25T00:24:21.555Z,101819.05
2019-05-25T00:29:23.363Z,101823.71
2019-05-25T00:34:25.180Z,101828.30
2019-05-25T00:39:27.070Z,101829.98
2019-05-25T00:44:30.518Z,101829.52
2019-05-25T00:49:32.369Z,101825.26
2019-05-25T00:54:34.375Z,101826.27
2019-05-25T00:59:36.203Z,101834.44
2019-05-25T01:04:39.682Z,101828.03
2019-05-25T01:09:41.550Z,101830.53
2019-05-25T01:14:43.517Z,101827.94
2019-05-25T01:19:45.319Z,101839.36
2019-05-25T01:24:47.167Z,101836.23
2019-05-25T01:29:48.960Z,101835.31
2019-05-25T01:34:53.956Z,101836.70
2019-05-25T01:39:57.976Z,101842.72
2019-05-25T01:45:01.554Z,101841.64
2019-05-25T01:50:03.576Z,101840.14
2019-05-25T01:55:05.852Z,101840.45
2019-05-25T02:00:09.567Z,101847.83
2019-05-25T02:05:12.565Z,101843.83
2019-05-25T02:10:14.706Z,101845.69
2019-05-25T02:15:17.014Z,101845.48
2019-05-25T02:20:18.902Z,101842.31
2019-05-25T02:25:20.784Z,101836.63
2019-05-25T02:30:26.731Z,101831.55
2019-05-25T02:35:32.116Z,101833.13
2019-05-25T02:40:34.101Z,101832.21
2019-05-25T02:45:37.109Z,101830.57
2019-05-25T02:50:38.922Z,101835.31
2019-05-25T02:55:41.062Z,101828.09
2019-05-25T03:00:42.868Z,101823.59
2019-05-25T03:05:47.886Z,101825.20
2019-05-25T03:10:50.302Z,101822.64
2019-05-25T03:15:52.282Z,101823.98
2019-05-25T03:20:54.188Z,101830.78
2019-05-25T03:25:55.998Z,101834.43
2019-05-25T03:30:57.826Z,101838.53
2019-05-25T03:35:59.885Z,101838.30
2019-05-25T03:41:01.588Z,101838.30
2019-05-25T03:46:03.392Z,101845.34
2019-05-25T03:51:05.235Z,101840.71
2019-05-25T03:56:07.104Z,101837.55
2019-05-25T04:01:09.311Z,101836.50
2019-05-25T04:06:12.931Z,101834.44
2019-05-25T04:11:14.765Z,101842.41
2019-05-25T04:16:19.068Z,101846.34
2019-05-25T04:21:20.776Z,101858.61
2019-05-25T04:26:23.080Z,101856.95
2019-05-25T04:31:25.203Z,101849.30
2019-05-25T04:36:28.530Z,101859.33
2019-05-25T04:41:33.758Z,101858.88
2019-05-25T04:46:37.344Z,101865.47
2019-05-25T04:51:39.131Z,101864.98
2019-05-25T04:56:41.092Z,101875.38
2019-05-25T05:01:42.838Z,101879.55
2019-05-25T05:06:44.779Z,101882.98
2019-05-25T05:11:46.568Z,101882.49
2019-05-25T05:16:48.398Z,101891.80
2019-05-25T05:21:50.180Z,101891.64
2019-05-25T05:26:55.823Z,101894.67
2019-05-25T05:31:59.030Z,101900.08
2019-05-25T05:37:02.308Z,101891.69
2019-05-25T05:42:07.085Z,101892.41
2019-05-25T05:47:13.476Z,101892.61
2019-05-25T05:52:17.922Z,101890.36
2019-05-25T05:57:22.018Z,101896.98
2019-05-25T06:02:26.375Z,101897.01
2019-05-25T06:07:29.994Z,101911.55
2019-05-25T06:12:31.705Z,101909.56
2019-05-25T06:17:33.419Z,101914.45
2019-05-25T06:22:35.322Z,101916.14
2019-05-25T06:27:38.550Z,101925.00
2019-05-25T06:32:40.385Z,101921.61
2019-05-25T06:37:44.706Z,101919.54
2019-05-25T06:42:46.565Z,101923.40
2019-05-25T06:47:48.605Z,101933.43
2019-05-25T06:52:50.698Z,101931.61
2019-05-25T06:57:55.906Z,101927.64
2019-05-25T07:02:57.827Z,101930.44
2019-05-25T07:08:02.687Z,101938.22
2019-05-25T07:13:04.534Z,101939.86
2019-05-25T07:18:06.309Z,101934.70
2019-05-25T07:23:08.107Z,101934.17
2019-05-25T07:28:10.022Z,101938.80
2019-05-25T07:33:15.106Z,101935.79
2019-05-25T07:38:18.355Z,101940.84
2019-05-25T07:43:20.348Z,101944.19
2019-05-25T07:48:23.737Z,101957.27
2019-05-25T07:53:27.129Z,101949.14
2019-05-25T07:58:28.934Z,101956.05
2019-05-25T08:03:30.736Z,101955.02
2019-05-25T08:08:32.610Z,101964.46
2019-05-25T08:13:34.602Z,101982.81
2019-05-25T08:18:40.571Z,101986.73
2019-05-25T08:23:42.362Z,101985.69
2019-05-25T08:28:44.174Z,101997.36
2019-05-25T08:33:46.100Z,101997.50
2019-05-25T08:38:50.387Z,101995.08
2019-05-25T08:43:54.018Z,102000.33
2019-05-25T08:48:55.814Z,101999.20
2019-05-25T08:53:57.782Z,101989.94
2019-05-25T08:59:01.409Z,101991.50
2019-05-25T09:04:04.514Z,101989.45
2019-05-25T09:09:15.565Z,101993.53
2019-05-25T09:14:17.404Z,101998.86
2019-05-25T09:19:19.276Z,101988.09
2019-05-25T09:24:21.133Z,101986.88
2019-05-25T09:29:25.057Z,101985.81
2019-05-25T09:34:26.904Z,101985.83
2019-05-25T09:39:28.766Z,101985.84
2019-05-25T09:44:30.807Z,101990.02
2019-05-25T09:49:32.611Z,101986.58
2019-05-25T09:54:34.459Z,101989.84
2019-05-25T09:59:39.112Z,101992.91
2019-05-25T10:04:41.201Z,101988.75
2019-05-25T10:09:43.006Z,101986.14
2019-05-25T10:14:46.237Z,101986.92
2019-05-25T10:19:50.264Z,101975.98
2019-05-25T10:24:52.724Z,101976.09
2019-05-25T10:29:54.456Z,101972.64
2019-05-25T10:34:57.671Z,101975.25
2019-05-25T10:39:59.481Z,101959.94
2019-05-25T10:45:02.693Z,101959.09
2019-05-25T10:50:06.727Z,101956.63
2019-05-25T10:55:09.280Z,101955.87
2019-05-25T11:00:15.433Z,101951.66
2019-05-25T11:05:17.839Z,101950.18
2019-05-25T11:10:19.885Z,101941.27
2019-05-25T11:15:21.964Z,101944.45
2019-05-25T11:20:23.806Z,101945.91
2019-05-25T11:25:25.793Z,101934.31
2019-05-25T11:30:29.172Z,101933.61
2019-05-25T11:35:31.281Z,101927.12
2019-05-25T11:40:33.115Z,101935.02
2019-05-25T11:45:35.058Z,101931.61
2019-05-25T11:50:36.862Z,101935.50
2019-05-25T11:55:39.801Z,101935.67
2019-05-25T12:00:41.657Z,101929.32
2019-05-25T12:05:43.472Z,101929.18
2019-05-25T12:10:47.699Z,101936.73
2019-05-25T12:15:49.578Z,101939.59
2019-05-25T12:20:52.590Z,101933.74
2019-05-25T12:25:54.583Z,101932.09
2019-05-25T12:30:56.381Z,101932.45
2019-05-25T12:35:58.418Z,101930.25
2019-05-25T12:41:02.429Z,101928.25
2019-05-25T12:46:04.522Z,101931.14
2019-05-25T12:51:06.341Z,101924.39
2019-05-25T12:56:10.969Z,101924.27
2019-05-25T13:01:12.768Z,101925.27
2019-05-25T13:06:17.986Z,101927.66
2019-05-25T13:11:20.979Z,101931.95
2019-05-25T13:16:22.747Z,101929.57
2019-05-25T13:21:24.569Z,101929.31
2019-05-25T13:26:26.533Z,101919.62
2019-05-25T13:31:30.776Z,101923.19
2019-05-25T13:36:32.643Z,101915.55
2019-05-25T13:41:36.428Z,101920.14
2019-05-25T13:46:38.465Z,101910.58
2019-05-25T13:51:40.268Z,101914.45
2019-05-25T13:56:42.012Z,101909.61
2019-05-25T14:01:45.336Z,101914.66
2019-05-25T14:06:47.327Z,101906.84
2019-05-25T14:11:49.215Z,101901.47
2019-05-25T14:16:51.014Z,101885.53
2019-05-25T14:21:52.811Z,101890.30
2019-05-25T14:26:54.910Z,101884.87
2019-05-25T14:31:56.591Z,101879.75
2019-05-25T14:36:58.570Z,101889.14
2019-05-25T14:42:00.278Z,101882.58
2019-05-25T14:47:02.214Z,101882.75
2019-05-25T14:52:04.040Z,101878.38
2019-05-25T14:57:05.919Z,101892.64
2019-05-25T15:02:11.176Z,101883.03
2019-05-25T15:07:16.045Z,101896.02
2019-05-25T15:12:18.494Z,101900.12
2019-05-25T15:17:20.274Z,101889.15
2019-05-25T15:22:26.765Z,101876.77
2019-05-25T15:27:28.936Z,101878.11
2019-05-25T15:32:30.757Z,101871.36
2019-05-25T15:37:34.480Z,101866.69
2019-05-25T15:42:36.235Z,101861.41
2019-05-25T15:47:38.284Z,101860.80
2019-05-25T15:52:42.166Z,101866.58
2019-05-25T15:57:45.769Z,101856.15
2019-05-25T16:02:51.693Z,101849.36
2019-05-25T16:07:53.823Z,101854.05
2019-05-25T16:12:58.615Z,101849.58
2019-05-25T16:18:03.919Z,101856.68
2019-05-25T16:23:05.766Z,101846.81
2019-05-25T16:28:07.683Z,101852.14
2019-05-25T16:33:12.856Z,101849.78
2019-05-25T16:38:13.195Z,101855.48
2019-05-25T16:43:15.137Z,101846.24
2019-05-25T16:48:16.930Z,101852.21
2019-05-25T16:53:18.631Z,101855.48
2019-05-25T16:58:20.422Z,101852.42
2019-05-25T17:03:28.002Z,101852.22
2019-05-25T17:08:25.877Z,101851.22
2019-05-25T17:13:27.915Z,101841.50
2019-05-25T17:18:29.709Z,101847.50
2019-05-25T17:23:31.524Z,101847.37
2019-05-25T17:28:33.323Z,101844.70
2019-05-25T17:33:45.865Z,101849.78
2019-05-25T17:38:42.570Z,101851.30
2019-05-25T17:43:44.435Z,101850.52
2019-05-25T17:48:46.251Z,101850.67
2019-05-25T17:53:48.062Z,101854.09
2019-05-25T17:58:49.866Z,101852.33
2019-05-25T18:04:06.725Z,101851.02
2019-05-25T18:08:57.927Z,101848.70
2019-05-25T18:14:00.009Z,101853.39
2019-05-25T18:19:01.854Z,101851.59
2019-05-25T18:24:03.999Z,101857.13
2019-05-25T18:29:05.749Z,101848.00
2019-05-25T18:34:21.777Z,101850.92
2019-05-25T18:39:15.186Z,101850.74
2019-05-25T18:44:16.989Z,101838.28
2019-05-25T18:49:18.802Z,101832.56
2019-05-25T18:54:20.600Z,101833.00
2019-05-25T18:59:23.626Z,101831.22
2019-05-25T19:04:42.156Z,101829.53
2019-05-25T19:09:29.362Z,101826.02
2019-05-25T19:14:31.435Z,101834.83
2019-05-25T19:19:33.233Z,101831.47
2019-05-25T19:24:35.038Z,101829.39
2019-05-25T19:29:36.751Z,101831.19
2019-05-25T19:34:38.582Z,101833.77
2019-05-25T19:39:40.373Z,101840.08
2019-05-25T19:44:42.386Z,101840.90
2019-05-25T19:49:46.313Z,101843.36
2019-05-25T19:54:48.221Z,101848.38
2019-05-25T19:59:49.917Z,101851.60
2019-05-25T20:04:51.773Z,101855.28
2019-05-25T20:09:53.509Z,101868.45
2019-05-25T20:14:56.524Z,101869.36
2019-05-25T20:19:58.344Z,101874.45
2019-05-25T20:25:00.424Z,101875.70
2019-05-25T20:30:02.216Z,101877.59
2019-05-25T20:35:04.143Z,101872.42
2019-05-25T20:40:06.098Z,101869.29
2019-05-25T20:45:07.995Z,101879.67
2019-05-25T20:50:09.943Z,101878.16
2019-05-25T20:55:11.778Z,101869.46
2019-05-25T21:00:17.049Z,101873.34
2019-05-25T21:05:18.870Z,101871.23
2019-05-25T21:10:20.716Z,101873.14
2019-05-25T21:15:22.676Z,101878.27
2019-05-25T21:20:24.413Z,101878.50
2019-05-25T21:25:28.632Z,101872.90
2019-05-25T21:30:30.433Z,101872.84
2019-05-25T21:35:32.041Z,101868.14
2019-05-25T21:40:33.896Z,101866.90
2019-05-25T21:45:35.888Z,101855.83
2019-05-25T21:50:37.736Z,101856.33
2019-05-25T21:55:39.795Z,101852.34
2019-05-25T22:00:43.780Z,101852.34
2019-05-25T22:05:48.654Z,101844.86
2019-05-25T22:10:50.478Z,101839.31
2019-05-25T22:15:52.573Z,101843.75
2019-05-25T22:20:54.369Z,101848.80
2019-05-25T22:25:56.217Z,101842.83
2019-05-25T22:30:58.677Z,101842.86
2019-05-25T22:36:00.543Z,101835.49
2019-05-25T22:41:02.379Z,101834.17
2019-05-25T22:46:04.541Z,101825.16
2019-05-25T22:51:06.608Z,101827.48
2019-05-25T22:56:08.825Z,101822.38
2019-05-25T23:01:12.977Z,101812.19
2019-05-25T23:06:14.804Z,101813.31
2019-05-25T23:11:16.784Z,101809.39
2019-05-25T23:16:21.098Z,101801.09
2019-05-25T23:21:22.773Z,101798.72
2019-05-25T23:26:24.366Z,101790.96
2019-05-25T23:31:26.073Z,101787.88
2019-05-25T23:36:27.927Z,101778.14
2019-05-25T23:41:29.681Z,101768.09
2019-05-25T23:46:31.594Z,101756.11
2019-05-25T23:51:33.381Z,101749.93
2019-05-25T23:56:35.239Z,101736.27
